Time;durP1;ratioP1;P1;durP2;ratioP2;P2;SDS_P1;SDS_P2;PMS_P1;PMS_P2;Temp;Humidity;BMP_temperature;BMP_pressure;BME280_temperature;BME280_humidity;BME280_pressure;Samples;Min_cycle;Max_cycle;Signal;HPM_P1;HPM_P2
2023/03/03 00:00:55;;;;;;;;;;;0.60;99.90;;;;;;5037419;28;19925;-89
2023/03/03 00:03:30;;;;;;;;;;;1.90;99.90;;;;;;5024744;28;20277;-89
2023/03/03 00:06:04;;;;;;;;;;;1.90;99.90;;;;;;5037072;28;20388;-89
2023/03/03 00:08:35;;;;;;;;;;;1.90;99.90;;;;;;5045748;28;19928;-90
2023/03/03 00:11:13;;;;;;;;;;;2.00;99.90;;;;;;5037535;28;20024;-90
2023/03/03 00:13:52;;;;;;;;;;;2.60;99.90;;;;;;5054956;28;19925;-89
2023/03/03 00:16:29;;;;;;;;;;;0.70;99.90;;;;;;5036051;28;20412;-89
2023/03/03 00:19:03;;;;;;;;;;;3.10;99.90;;;;;;5036640;28;19976;-90
2023/03/03 00:21:42;;;;;;;;;;;2.20;99.90;;;;;;5052346;28;19925;-88
2023/03/03 00:24:22;;;;;;;;;;;0.00;99.90;;;;;;5047223;28;20015;-89
2023/03/03 00:26:55;;;;;;;;;;;3.10;99.90;;;;;;5034288;28;19925;-89
2023/03/03 00:29:35;;;;;;;;;;;2.10;99.90;;;;;;5037313;28;20393;-89
2023/03/03 00:32:25;;;;;;;;;;;2.60;99.90;;;;;;5054714;28;19974;-89
2023/03/03 00:34:51;;;;;;;;;;;2.40;99.90;;;;;;5054189;28;19925;-90
2023/03/03 00:37:29;;;;;;;;;;;3.80;99.90;;;;;;5037502;28;20059;-90
2023/03/03 00:40:12;;;;;;;;;;;2.90;99.90;;;;;;5037658;28;20331;-89
2023/03/03 00:42:50;;;;;;;;;;;2.20;99.90;;;;;;5037788;28;19924;-89
2023/03/03 00:45:30;;;;;;;;;;;1.90;99.90;;;;;;5036794;28;19925;-89
2023/03/03 00:48:11;;;;;;;;;;;1.90;99.90;;;;;;5037270;28;19925;-89
2023/03/03 00:50:41;;;;;;;;;;;1.80;99.90;;;;;;5034127;28;20055;-89
2023/03/03 00:53:28;;;;;;;;;;;3.00;99.90;;;;;;5033900;28;20000;-89
2023/03/03 00:55:57;;;;;;;;;;;2.80;99.90;;;;;;5037358;28;19931;-89
2023/03/03 00:58:28;;;;;;;;;;;1.80;99.90;;;;;;5035370;28;20361;-89
2023/03/03 01:01:01;;;;;;;;;;;3.90;99.90;;;;;;5016601;28;19969;-89
2023/03/03 01:03:36;;;;;;;;;;;1.70;99.90;;;;;;5050625;28;20015;-89
2023/03/03 01:06:04;;;;;;;;;;;1.70;99.90;;;;;;5031630;28;20269;-90
2023/03/03 01:08:30;;;;;;;;;;;1.70;99.90;;;;;;5020712;28;19933;-89
2023/03/03 01:10:57;;;;;;;;;;;1.30;99.90;;;;;;5033638;28;19925;-89
2023/03/03 01:13:29;;;;;;;;;;;2.70;99.90;;;;;;5030519;28;20345;-89
2023/03/03 01:15:57;;;;;;;;;;;4.20;99.90;;;;;;5036261;28;20276;-89
2023/03/03 01:18:32;;;;;;;;;;;1.70;99.90;;;;;;5038452;28;19969;-89
2023/03/03 01:21:00;;;;;;;;;;;0.90;99.90;;;;;;5035528;28;19925;-89
2023/03/03 01:23:29;;;;;;;;;;;1.70;99.90;;;;;;5028032;28;19968;-89
2023/03/03 01:26:02;;;;;;;;;;;1.70;99.90;;;;;;5036449;28;19925;-89
2023/03/03 01:28:28;;;;;;;;;;;1.70;99.90;;;;;;5033855;28;19975;-89
2023/03/03 01:31:02;;;;;;;;;;;1.30;99.90;;;;;;5048719;28;19928;-89
2023/03/03 01:33:38;;;;;;;;;;;;;;;;;;;;;
2023/03/03 01:36:09;;;;;;;;;;;3.00;99.90;;;;;;5052778;28;19928;-90
2023/03/03 01:38:37;;;;;;;;;;;1.70;99.90;;;;;;5034247;28;19932;-89
2023/03/03 01:41:06;;;;;;;;;;;1.90;99.90;;;;;;5036713;28;19925;-89
2023/03/03 01:43:45;;;;;;;;;;;1.60;99.90;;;;;;5046724;28;20367;-89
2023/03/03 01:46:42;;;;;;;;;;;1.60;99.90;;;;;;5055304;28;19970;-89
2023/03/03 01:49:19;;;;;;;;;;;1.60;99.90;;;;;;5040421;28;20260;-89
2023/03/03 01:51:47;;;;;;;;;;;1.90;99.90;;;;;;5039524;28;19924;-90
2023/03/03 01:54:17;;;;;;;;;;;5.10;99.90;;;;;;5031809;28;19975;-89
2023/03/03 01:56:45;;;;;;;;;;;-0.80;99.90;;;;;;5051311;28;19968;-89
2023/03/03 01:59:24;;;;;;;;;;;1.30;99.90;;;;;;5025374;28;20391;-89
2023/03/03 02:01:52;;;;;;;;;;;1.20;99.90;;;;;;5040618;28;19925;-89
2023/03/03 02:04:20;;;;;;;;;;;1.10;99.90;;;;;;5051542;28;20023;-89
2023/03/03 02:06:51;;;;;;;;;;;2.00;99.90;;;;;;5038535;28;19973;-89
2023/03/03 02:09:19;;;;;;;;;;;1.10;99.90;;;;;;5038734;28;20295;-89
2023/03/03 02:11:51;;;;;;;;;;;1.00;99.90;;;;;;5035158;28;19925;-89
2023/03/03 02:14:16;;;;;;;;;;;3.00;99.90;;;;;;5050338;28;20411;-89
2023/03/03 02:16:55;;;;;;;;;;;;;;;;;;;;;
2023/03/03 02:19:51;;;;;;;;;;;1.10;99.90;;;;;;5066944;28;19931;-89
2023/03/03 02:22:19;;;;;;;;;;;0.90;99.90;;;;;;5016458;28;20011;-89
2023/03/03 02:24:57;;;;;;;;;;;0.70;99.90;;;;;;5053332;28;19949;-89
2023/03/03 02:27:35;;;;;;;;;;;1.00;99.90;;;;;;5040702;28;19975;-91
2023/03/03 02:30:16;;;;;;;;;;;0.60;99.90;;;;;;5058228;28;19912;-90
2023/03/03 02:32:46;;;;;;;;;;;0.60;99.90;;;;;;5073662;28;19912;-89
2023/03/03 02:35:26;;;;;;;;;;;0.50;99.90;;;;;;5033857;28;19928;-89
2023/03/03 02:37:54;;;;;;;;;;;0.50;99.90;;;;;;5065183;28;19920;-89
2023/03/03 02:40:24;;;;;;;;;;;0.40;99.90;;;;;;5079611;28;19931;-90
2023/03/03 02:42:50;;;;;;;;;;;1.30;99.90;;;;;;5060280;28;19912;-89
2023/03/03 02:45:26;;;;;;;;;;;0.30;99.90;;;;;;5023938;28;19913;-89
2023/03/03 02:47:55;;;;;;;;;;;0.40;99.90;;;;;;5021236;28;19996;-89
2023/03/03 02:50:23;;;;;;;;;;;0.30;99.90;;;;;;5029568;28;19932;-88
2023/03/03 02:52:58;;;;;;;;;;;;;;;;;;;;;
2023/03/03 02:55:26;;;;;;;;;;;0.20;99.90;;;;;;5032609;28;19948;-89
2023/03/03 02:57:52;;;;;;;;;;;0.10;99.90;;;;;;5036666;28;19990;-89
2023/03/03 03:00:20;;;;;;;;;;;0.00;99.90;;;;;;5035523;28;19928;-89
2023/03/03 03:02:46;;;;;;;;;;;-0.10;99.90;;;;;;5010435;28;19932;-89
2023/03/03 03:05:14;;;;;;;;;;;0.00;99.90;;;;;;5032363;28;19933;-89
2023/03/03 03:07:42;;;;;;;;;;;-0.10;99.90;;;;;;5033162;28;20007;-89
2023/03/03 03:10:10;;;;;;;;;;;-0.10;99.90;;;;;;5018855;28;20435;-89
2023/03/03 03:12:44;;;;;;;;;;;-0.20;99.90;;;;;;5012157;28;19932;-90
2023/03/03 03:15:12;;;;;;;;;;;-0.30;99.90;;;;;;5010660;28;19925;-89
2023/03/03 03:17:45;;;;;;;;;;;-0.40;99.90;;;;;;5016209;28;20016;-89
2023/03/03 03:20:18;;;;;;;;;;;-0.40;99.90;;;;;;5003183;28;19928;-89
2023/03/03 03:22:59;;;;;;;;;;;-0.50;99.90;;;;;;5034514;28;19932;-89
2023/03/03 03:25:24;;;;;;;;;;;-0.50;99.90;;;;;;5003156;28;19925;-89
2023/03/03 03:27:52;;;;;;;;;;;-0.60;99.90;;;;;;5024180;28;19929;-89
2023/03/03 03:30:21;;;;;;;;;;;-0.70;99.90;;;;;;5013582;28;19978;-89
2023/03/03 03:32:57;;;;;;;;;;;;;;;;;;;;;
2023/03/03 03:35:23;;;;;;;;;;;-0.70;99.90;;;;;;5026679;28;19936;-89
2023/03/03 03:37:53;;;;;;;;;;;-0.80;99.90;;;;;;5021771;28;19924;-90
2023/03/03 03:40:21;;;;;;;;;;;-0.70;99.90;;;;;;5015865;28;19993;-90
2023/03/03 03:42:49;;;;;;;;;;;-0.80;99.90;;;;;;5016268;28;20049;-89
2023/03/03 03:45:23;;;;;;;;;;;-0.80;99.90;;;;;;5029538;28;19925;-89
2023/03/03 03:48:16;;;;;;;;;;;-0.80;99.90;;;;;;5035208;28;19924;-89
2023/03/03 03:50:50;;;;;;;;;;;-0.80;99.90;;;;;;5017537;28;19933;-89
2023/03/03 03:53:17;;;;;;;;;;;-0.80;99.90;;;;;;5046218;28;19928;-89
2023/03/03 03:55:46;;;;;;;;;;;-0.80;99.90;;;;;;5015092;28;19929;-89
2023/03/03 03:58:19;;;;;;;;;;;-0.80;99.90;;;;;;5010947;28;19968;-89
2023/03/03 04:00:45;;;;;;;;;;;-0.90;99.90;;;;;;5033999;28;20267;-89
2023/03/03 04:03:13;;;;;;;;;;;-0.90;99.90;;;;;;5018956;28;20415;-89
2023/03/03 04:05:42;;;;;;;;;;;-1.00;99.90;;;;;;5015942;28;19948;-89
2023/03/03 04:08:07;;;;;;;;;;;-1.00;99.90;;;;;;5019603;28;20292;-89
2023/03/03 04:10:36;;;;;;;;;;;-1.00;99.90;;;;;;5020790;28;19925;-89
2023/03/03 04:13:04;;;;;;;;;;;-1.00;99.90;;;;;;5012353;28;20007;-89
2023/03/03 04:15:32;;;;;;;;;;;-1.00;99.90;;;;;;5016440;28;19964;-89
2023/03/03 04:18:17;;;;;;;;;;;-1.20;99.90;;;;;;5014579;28;20353;-89
2023/03/03 04:20:53;;;;;;;;;;;-1.30;99.90;;;;;;5036735;28;19968;-89
2023/03/03 04:23:19;;;;;;;;;;;-1.40;99.90;;;;;;5019338;28;19979;-89
2023/03/03 04:25:47;;;;;;;;;;;-1.40;99.90;;;;;;5018850;28;19925;-90
2023/03/03 04:28:23;;;;;;;;;;;-1.40;99.90;;;;;;5038549;28;20019;-89
2023/03/03 04:30:49;;;;;;;;;;;-1.40;99.90;;;;;;5022210;28;19932;-89
2023/03/03 04:33:20;;;;;;;;;;;-1.40;99.90;;;;;;5021796;28;19924;-89
2023/03/03 04:35:48;;;;;;;;;;;-1.60;99.90;;;;;;5019510;28;20369;-89
2023/03/03 04:38:19;;;;;;;;;;;-1.60;99.90;;;;;;5017014;28;20086;-88
2023/03/03 04:40:47;;;;;;;;;;;-1.60;99.90;;;;;;5030998;28;20020;-89
2023/03/03 04:43:13;;;;;;;;;;;-1.70;99.90;;;;;;4997934;28;20241;-89
2023/03/03 04:45:38;;;;;;;;;;;-1.90;99.90;;;;;;5033829;28;19935;-89
2023/03/03 04:48:04;;;;;;;;;;;-1.80;99.90;;;;;;5050911;28;19925;-89
2023/03/03 04:50:38;;;;;;;;;;;-1.80;99.90;;;;;;5031798;28;20224;-89
2023/03/03 04:53:06;;;;;;;;;;;-1.90;99.90;;;;;;5030684;28;19947;-89
2023/03/03 04:55:32;;;;;;;;;;;-1.90;99.90;;;;;;5056233;28;19925;-89
2023/03/03 04:58:03;;;;;;;;;;;-1.90;99.90;;;;;;5024626;28;19925;-89
2023/03/03 05:00:33;;;;;;;;;;;-2.00;99.90;;;;;;5020829;28;19925;-90
2023/03/03 05:03:04;;;;;;;;;;;-2.00;99.90;;;;;;5053968;28;20012;-89
2023/03/03 05:05:32;;;;;;;;;;;-2.10;99.90;;;;;;5006294;28;19964;-89
2023/03/03 05:08:01;;;;;;;;;;;-2.10;99.90;;;;;;5030116;28;19947;-90
2023/03/03 05:10:37;;;;;;;;;;;;;;;;;;;;;
2023/03/03 05:13:18;;;;;;;;;;;;;;;;;;;;;
2023/03/03 05:15:51;;;;;;;;;;;-2.20;99.90;;;;;;5035042;28;19931;-89
2023/03/03 05:18:20;;;;;;;;;;;-2.30;99.90;;;;;;5041379;28;19932;-90
2023/03/03 05:20:48;;;;;;;;;;;-2.30;99.90;;;;;;5053418;28;19932;-90
2023/03/03 05:23:21;;;;;;;;;;;-2.30;99.90;;;;;;5013162;28;19947;-90
2023/03/03 05:28:43;;;;;;;;;;;-2.20;99.90;;;;;;5052193;28;19931;-90
2023/03/03 05:31:14;;;;;;;;;;;-2.20;99.90;;;;;;5035593;28;20115;-90
2023/03/03 05:33:44;;;;;;;;;;;-2.20;99.90;;;;;;5033532;28;19941;-90
2023/03/03 05:36:12;;;;;;;;;;;-2.20;99.90;;;;;;5056965;28;19929;-90
2023/03/03 05:38:48;;;;;;;;;;;;;;;;;;;;;
2023/03/03 05:41:27;;;;;;;;;;;-2.30;99.90;;;;;;5045452;28;20034;-91
2023/03/03 05:44:04;;;;;;;;;;;;;;;;;;5022796;28;19944;-93
2023/03/03 05:46:57;;;;;;;;;;;;;;;;;;;;;
2023/03/03 05:49:46;;;;;;;;;;;-2.50;99.90;;;;;;5031145;28;19924;-92
2023/03/03 05:52:34;;;;;;;;;;;-2.50;99.90;;;;;;5043581;28;19932;-93
2023/03/03 05:55:02;;;;;;;;;;;-2.50;99.90;;;;;;5023148;28;19928;-89
2023/03/03 05:57:37;;;;;;;;;;;-2.50;99.90;;;;;;5032156;28;19925;-91
2023/03/03 06:00:07;;;;;;;;;;;-2.50;99.90;;;;;;5038945;28;19967;-91
2023/03/03 06:05:21;;;;;;;;;;;-2.50;99.90;;;;;;5041198;28;20008;-91
2023/03/03 06:11:28;;;;;;;;;;;-2.60;99.90;;;;;;5045286;28;20351;-91
2023/03/03 06:14:21;;;;;;;;;;;-2.50;99.90;;;;;;5036554;28;19932;-93
2023/03/03 06:17:06;;;;;;;;;;;-2.50;99.90;;;;;;5022375;28;19925;-91
2023/03/03 06:19:32;;;;;;;;;;;-2.50;99.90;;;;;;5053306;28;19925;-90
2023/03/03 06:21:58;;;;;;;;;;;-2.50;99.90;;;;;;5049367;28;19933;-88
2023/03/03 06:24:44;;;;;;;;;;;;;;;;;;;;;
2023/03/03 06:27:10;;;;;;;;;;;-2.50;99.90;;;;;;5036751;28;19925;-91
2023/03/03 06:29:59;;;;;;;;;;;-2.50;99.90;;;;;;5036228;28;19936;-91
2023/03/03 06:32:24;;;;;;;;;;;-2.50;99.90;;;;;;5050536;28;20327;-91
2023/03/03 06:35:18;;;;;;;;;;;;;;;;;;;;;
2023/03/03 06:37:55;;;;;;;;;;;-2.50;99.90;;;;;;5053534;28;20288;-91
2023/03/03 06:40:57;;;;;;;;;;;;;;;;;;;;;
2023/03/03 06:44:00;;;;;;;;;;;;;;;;;;;;;
2023/03/03 06:49:27;;;;;;;;;;;-2.40;99.90;;;;;;5056163;28;19925;-91
2023/03/03 06:52:23;;;;;;;;;;;;;;;;;;;;;
2023/03/03 06:58:16;;;;;;;;;;;-2.20;99.90;;;;;;5039147;28;19967;-90
2023/03/03 07:01:03;;;;;;;;;;;-2.20;99.90;;;;;;5036601;28;20380;-90
2023/03/03 07:06:42;;;;;;;;;;;-1.90;99.90;;;;;;5047060;28;19948;-92
2023/03/03 07:09:16;;;;;;;;;;;-1.80;99.90;;;;;;5050336;28;19924;-90
2023/03/03 07:11:52;;;;;;;;;;;-1.80;99.90;;;;;;5037494;28;19929;-92
2023/03/03 07:14:37;;;;;;;;;;;-1.80;99.90;;;;;;5073869;28;19936;-91
2023/03/03 07:17:03;;;;;;;;;;;-1.70;99.90;;;;;;5073415;28;19921;-92
2023/03/03 07:19:40;;;;;;;;;;;-1.70;99.90;;;;;;5056192;28;19973;-91
2023/03/03 07:25:23;;;;;;;;;;;-1.70;99.90;;;;;;5066898;28;19966;-91
2023/03/03 07:27:51;;;;;;;;;;;-1.70;99.90;;;;;;5071986;28;20005;-91
2023/03/03 07:30:19;;;;;;;;;;;-1.60;99.90;;;;;;5061596;28;19944;-91
2023/03/03 07:32:48;;;;;;;;;;;-1.60;99.90;;;;;;5078620;28;19912;-92
2023/03/03 07:35:22;;;;;;;;;;;-1.50;99.90;;;;;;5047782;28;19983;-90
2023/03/03 07:38:00;;;;;;;;;;;-1.30;99.90;;;;;;5057242;28;19925;-91
2023/03/03 07:40:34;;;;;;;;;;;-1.30;99.90;;;;;;5021588;28;20011;-90
2023/03/03 07:43:28;;;;;;;;;;;-0.90;99.90;;;;;;5077993;28;19939;-89
2023/03/03 07:46:05;;;;;;;;;;;-0.90;99.90;;;;;;5036229;28;19983;-90
2023/03/03 07:48:35;;;;;;;;;;;-0.60;99.90;;;;;;5056979;28;19968;-89
2023/03/03 07:51:11;;;;;;;;;;;-0.50;99.90;;;;;;5039599;28;19944;-90
2023/03/03 07:53:57;;;;;;;;;;;-0.40;99.90;;;;;;5034159;28;19971;-90
2023/03/03 07:56:57;;;;;;;;;;;-0.30;99.90;;;;;;5050827;28;19925;-89
2023/03/03 07:59:26;;;;;;;;;;;-0.30;99.90;;;;;;5053301;28;19925;-89
2023/03/03 08:01:55;;;;;;;;;;;-0.30;99.90;;;;;;5053173;28;20015;-89
2023/03/03 08:04:23;;;;;;;;;;;-0.20;99.90;;;;;;5039801;28;20283;-89
2023/03/03 08:06:53;;;;;;;;;;;-0.20;99.90;;;;;;5036047;28;19924;-89
2023/03/03 08:09:21;;;;;;;;;;;-0.10;99.90;;;;;;5035733;28;19929;-89
2023/03/03 08:11:51;;;;;;;;;;;-0.10;99.90;;;;;;5047290;28;20098;-89
2023/03/03 08:14:20;;;;;;;;;;;0.00;99.90;;;;;;5038150;28;19935;-89
2023/03/03 08:17:13;;;;;;;;;;;0.10;99.90;;;;;;5038665;28;19928;-91
2023/03/03 08:19:39;;;;;;;;;;;0.10;99.90;;;;;;5055262;28;20015;-90
2023/03/03 08:22:14;;;;;;;;;;;0.10;99.90;;;;;;5050934;28;20105;-87
2023/03/03 08:24:57;;;;;;;;;;;0.20;99.90;;;;;;5054193;28;19924;-89
2023/03/03 08:27:39;;;;;;;;;;;0.20;99.90;;;;;;5051983;28;20075;-91
2023/03/03 08:30:21;;;;;;;;;;;0.30;99.90;;;;;;5053525;28;19931;-90
2023/03/03 08:32:55;;;;;;;;;;;0.30;99.90;;;;;;5035643;28;19925;-89
2023/03/03 08:35:31;;;;;;;;;;;0.40;99.90;;;;;;5023054;28;20345;-89
2023/03/03 08:38:27;;;;;;;;;;;0.50;99.90;;;;;;5050423;28;19977;-89
2023/03/03 08:40:50;;;;;;;;;;;0.50;99.90;;;;;;5065699;28;20369;-90
2023/03/03 08:43:20;;;;;;;;;;;0.50;99.90;;;;;;5053301;28;19989;-90
2023/03/03 08:45:50;;;;;;;;;;;0.50;99.90;;;;;;5047140;28;19924;-91
2023/03/03 08:48:23;;;;;;;;;;;3.30;99.90;;;;;;5050564;28;19925;-88
2023/03/03 08:50:49;;;;;;;;;;;0.60;99.90;;;;;;5037274;28;20018;-92
2023/03/03 08:53:16;;;;;;;;;;;0.70;99.90;;;;;;5035554;28;20012;-89
2023/03/03 08:55:41;;;;;;;;;;;0.60;99.90;;;;;;5055906;28;19924;-92
2023/03/03 08:58:22;;;;;;;;;;;0.70;99.90;;;;;;5039610;28;19931;-91
2023/03/03 09:00:58;;;;;;;;;;;0.80;99.90;;;;;;5050568;28;20015;-91
2023/03/03 09:03:44;;;;;;;;;;;0.80;99.90;;;;;;5033105;28;19924;-92
2023/03/03 09:06:33;;;;;;;;;;;1.00;99.90;;;;;;5036483;28;19939;-91
2023/03/03 09:09:14;;;;;;;;;;;1.00;99.90;;;;;;5039854;28;19928;-90
2023/03/03 09:11:42;;;;;;;;;;;2.70;99.90;;;;;;5049155;28;19929;-92
2023/03/03 09:14:14;;;;;;;;;;;1.10;99.90;;;;;;5052073;28;20341;-91
2023/03/03 09:16:50;;;;;;;;;;;0.20;99.90;;;;;;5051915;28;20003;-91
2023/03/03 09:19:33;;;;;;;;;;;1.30;99.90;;;;;;5039568;28;20003;-90
2023/03/03 09:22:21;;;;;;;;;;;1.90;99.90;;;;;;5056451;28;19955;-90
2023/03/03 09:24:52;;;;;;;;;;;2.20;99.90;;;;;;5044612;28;19932;-91
2023/03/03 09:30:31;;;;;;;;;;;-0.10;99.90;;;;;;5035127;28;20340;-92
2023/03/03 09:33:09;;;;;;;;;;;2.30;99.90;;;;;;5031432;28;19925;-90
2023/03/03 09:35:39;;;;;;;;;;;4.20;99.90;;;;;;5048610;28;20344;-90
2023/03/03 09:38:30;;;;;;;;;;;0.70;99.90;;;;;;5035678;28;20332;-90
2023/03/03 09:41:04;;;;;;;;;;;2.60;99.90;;;;;;5035245;28;20384;-90
2023/03/03 09:43:48;;;;;;;;;;;2.90;99.90;;;;;;5028991;28;19940;-91
2023/03/03 09:46:24;;;;;;;;;;;4.70;99.90;;;;;;5016656;28;19983;-91
2023/03/03 09:48:59;;;;;;;;;;;1.80;99.90;;;;;;5029373;28;19924;-91
2023/03/03 09:51:31;;;;;;;;;;;3.60;99.90;;;;;;5025809;28;19932;-89
2023/03/03 09:54:13;;;;;;;;;;;2.80;99.90;;;;;;5036336;28;19928;-91
2023/03/03 09:56:44;;;;;;;;;;;3.00;99.90;;;;;;5015676;28;19932;-91
2023/03/03 09:59:36;;;;;;;;;;;3.50;99.90;;;;;;5019556;28;20428;-91
2023/03/03 10:02:32;;;;;;;;;;;;;;;;;;;;;
2023/03/03 10:05:17;;;;;;;;;;;4.80;99.90;;;;;;5051142;28;19980;-93
2023/03/03 10:08:09;;;;;;;;;;;4.00;99.90;;;;;;5021123;28;20452;-93
2023/03/03 10:13:42;;;;;;;;;;;1.50;99.90;;;;;;5035332;28;20018;-93
2023/03/03 10:16:36;;;;;;;;;;;;;;;;;;;;;
2023/03/03 10:19:24;;;;;;;;;;;;;;;;;;;;;
2023/03/03 10:22:37;;;;;;;;;;;4.10;99.90;;;;;;5046524;23;20015;-93
2023/03/03 10:25:30;;;;;;;;;;;7.10;99.90;;;;;;5035743;28;19925;-91
2023/03/03 10:28:07;;;;;;;;;;;5.20;99.90;;;;;;5023832;28;19932;-93
2023/03/03 10:37:19;;;;;;;;;;;;;;;;;;;;;
2023/03/03 10:40:32;;;;;;;;;;;4.80;99.90;;;;;;5050279;28;19932;-93
2023/03/03 10:43:19;;;;;;;;;;;4.80;99.90;;;;;;5035786;28;20265;-93
2023/03/03 10:46:23;;;;;;;;;;;7.80;99.90;;;;;;5048599;28;19979;-93
2023/03/03 10:52:16;;;;;;;;;;;;;;;;;;;;;
2023/03/03 10:55:14;;;;;;;;;;;5.60;99.90;;;;;;5043184;28;19929;-93
2023/03/03 10:58:00;;;;;;;;;;;6.40;99.90;;;;;;5002974;28;19925;-91
2023/03/03 11:00:59;;;;;;;;;;;;;;;;;;;;;
2023/03/03 11:03:44;;;;;;;;;;;6.20;99.90;;;;;;5057595;28;19933;-92
2023/03/03 11:06:43;;;;;;;;;;;6.20;99.90;;;;;;5054875;28;19929;-92
2023/03/03 11:09:15;;;;;;;;;;;6.20;99.90;;;;;;5046729;28;20331;-92
2023/03/03 11:11:56;;;;;;;;;;;;;;;;;;;;;
2023/03/03 11:14:46;;;;;;;;;;;6.40;99.90;;;;;;5052344;28;20012;-93
2023/03/03 11:17:30;;;;;;;;;;;5.50;99.90;;;;;;5035389;28;19939;-92
2023/03/03 11:20:25;;;;;;;;;;;7.70;99.90;;;;;;5025143;28;20256;-92
2023/03/03 11:23:12;;;;;;;;;;;6.50;99.90;;;;;;5036082;28;19928;-91
2023/03/03 11:26:15;;;;;;;;;;;8.70;99.90;;;;;;5052937;28;19925;-90
2023/03/03 11:29:06;;;;;;;;;;;6.60;99.90;;;;;;5024132;28;19974;-92
2023/03/03 11:31:43;;;;;;;;;;;6.90;99.90;;;;;;5044256;28;20379;-92
2023/03/03 11:34:21;;;;;;;;;;;6.50;99.90;;;;;;5051463;28;19924;-93
2023/03/03 11:37:10;;;;;;;;;;;4.60;99.90;;;;;;5056716;28;19944;-90
2023/03/03 11:39:45;;;;;;;;;;;6.50;99.90;;;;;;5053189;28;19920;-90
2023/03/03 11:42:28;;;;;;;;;;;6.60;99.90;;;;;;5057144;28;19920;-91
2023/03/03 11:45:12;;;;;;;;;;;6.70;99.90;;;;;;5069141;28;19913;-92
2023/03/03 11:47:38;;;;;;;;;;;7.10;99.90;;;;;;5073892;28;19944;-92
2023/03/03 11:50:06;;;;;;;;;;;7.10;99.90;;;;;;5061314;28;19932;-93
2023/03/03 11:52:53;;;;;;;;;;;;;;;;;;;;;
2023/03/03 11:55:45;;;;;;;;;;;5.40;99.90;;;;;;5070286;28;19947;-90
2023/03/03 11:58:36;;;;;;;;;;;6.80;99.90;;;;;;5039184;28;20264;-92
2023/03/03 12:01:15;;;;;;;;;;;5.00;99.90;;;;;;5034154;28;20024;-94
2023/03/03 12:04:09;;;;;;;;;;;7.60;99.90;;;;;;5029382;28;20023;-94
2023/03/03 12:07:02;;;;;;;;;;;6.70;99.90;;;;;;5053676;28;20473;-93
2023/03/03 12:09:54;;;;;;;;;;;6.10;99.90;;;;;;5037125;28;19964;-93
2023/03/03 12:12:40;;;;;;;;;;;6.10;99.90;;;;;;5033232;28;20004;-93
2023/03/03 12:15:28;;;;;;;;;;;7.30;99.90;;;;;;5034824;28;20327;-93
2023/03/03 12:18:19;;;;;;;;;;;7.10;99.90;;;;;;5037270;28;19925;-93
2023/03/03 12:24:16;;;;;;;;;;;5.30;99.90;;;;;;5051046;28;19978;-94
2023/03/03 12:27:11;;;;;;;;;;;7.30;99.90;;;;;;5035844;28;20391;-95
2023/03/03 12:29:45;;;;;;;;;;;6.00;99.90;;;;;;5033687;28;19972;-93
2023/03/03 12:35:35;;;;;;;;;;;5.80;99.90;;;;;;5045049;28;19935;-93
2023/03/03 12:38:35;;;;;;;;;;;7.60;99.90;;;;;;5049906;28;19929;-94
2023/03/03 12:41:34;;;;;;;;;;;7.80;99.90;;;;;;5034073;28;20307;-92
2023/03/03 12:44:23;;;;;;;;;;;7.60;99.90;;;;;;5050095;28;19924;-93
2023/03/03 12:47:01;;;;;;;;;;;7.60;99.90;;;;;;5035484;28;20249;-92
2023/03/03 12:49:46;;;;;;;;;;;8.00;99.90;;;;;;5036477;28;19929;-93
2023/03/03 12:52:48;;;;;;;;;;;7.60;99.90;;;;;;5031679;28;19925;-93
2023/03/03 12:55:35;;;;;;;;;;;7.80;99.90;;;;;;5033918;28;20342;-95
2023/03/03 12:58:14;;;;;;;;;;;;;;;;;;;;;
2023/03/03 13:01:04;;;;;;;;;;;8.20;99.90;;;;;;5057651;28;20306;-92
2023/03/03 13:06:39;;;;;;;;;;;8.10;99.90;;;;;;5058572;28;19978;-90
2023/03/03 13:09:23;;;;;;;;;;;7.80;99.90;;;;;;5039401;28;20406;-90
2023/03/03 13:12:13;;;;;;;;;;;8.40;99.90;;;;;;5042836;28;19937;-91
2023/03/03 13:15:25;;;;;;;;;;;;;;;;;;;;;
2023/03/03 13:18:03;;;;;;;;;;;7.90;99.90;;;;;;5064453;28;20175;-93
2023/03/03 13:20:50;;;;;;;;;;;;;;;;;;;;;
2023/03/03 13:23:55;;;;;;;;;;;7.70;99.90;;;;;;5052220;28;19960;-93
2023/03/03 13:30:03;;;;;;;;;;;7.80;99.90;;;;;;5019965;28;20329;-93
2023/03/03 13:32:50;;;;;;;;;;;8.00;99.90;;;;;;5010384;28;19925;-92
2023/03/03 13:35:32;;;;;;;;;;;6.20;99.90;;;;;;5018849;28;20347;-90
2023/03/03 13:38:01;;;;;;;;;;;6.30;99.90;;;;;;5054684;28;20055;-90
2023/03/03 13:40:54;;;;;;;;;;;6.90;99.90;;;;;;5054880;28;19936;-90
2023/03/03 13:43:46;;;;;;;;;;;7.90;99.90;;;;;;5070711;28;20019;-90
2023/03/03 13:46:38;;;;;;;;;;;8.20;99.90;;;;;;5046251;28;20271;-92
2023/03/03 13:49:45;;;;;;;;;;;8.90;99.90;;;;;;5036699;28;19924;-93
2023/03/03 13:52:49;;;;;;;;;;;8.10;99.90;;;;;;4999263;28;20364;-94
2023/03/03 14:02:21;;;;;;;;;;;8.30;99.90;;;;;;5034915;22;19947;-96
2023/03/03 14:05:05;;;;;;;;;;;7.80;99.90;;;;;;5021413;28;19928;-96
2023/03/03 14:07:48;;;;;;;;;;;7.70;99.90;;;;;;5027893;28;19932;-96
2023/03/03 14:10:24;;;;;;;;;;;7.70;99.90;;;;;;5029714;28;19932;-95
2023/03/03 14:12:55;;;;;;;;;;;7.70;99.90;;;;;;5043569;28;19988;-94
2023/03/03 14:15:21;;;;;;;;;;;7.60;99.90;;;;;;5035876;28;19956;-96
2023/03/03 14:18:07;;;;;;;;;;;7.50;99.90;;;;;;5028769;28;20383;-96
2023/03/03 14:20:38;;;;;;;;;;;7.50;99.90;;;;;;5029795;28;19925;-96
2023/03/03 14:23:17;;;;;;;;;;;7.40;99.90;;;;;;5036584;28;19924;-96
2023/03/03 14:25:51;;;;;;;;;;;7.40;99.90;;;;;;5046368;28;19944;-96
2023/03/03 14:28:18;;;;;;;;;;;7.40;99.90;;;;;;5029138;28;19937;-96
2023/03/03 14:30:52;;;;;;;;;;;7.30;99.90;;;;;;5032515;28;19983;-95
2023/03/03 14:33:19;;;;;;;;;;;7.30;99.90;;;;;;5033226;28;19921;-96
2023/03/03 14:35:58;;;;;;;;;;;7.20;99.90;;;;;;5049255;28;19925;-96
2023/03/03 14:38:43;;;;;;;;;;;7.20;99.90;;;;;;5044414;28;19948;-96
2023/03/03 14:41:14;;;;;;;;;;;7.20;99.90;;;;;;5054404;28;19920;-96
2023/03/03 14:43:56;;;;;;;;;;;7.20;99.90;;;;;;5053957;28;19991;-96
2023/03/03 14:46:39;;;;;;;;;;;7.20;99.90;;;;;;5048981;28;19996;-96
2023/03/03 14:49:15;;;;;;;;;;;7.20;99.90;;;;;;5029875;28;19992;-96
2023/03/03 14:51:47;;;;;;;;;;;7.10;99.90;;;;;;5029579;28;19964;-95
2023/03/03 14:54:21;;;;;;;;;;;7.10;99.90;;;;;;5028168;28;20318;-96
2023/03/03 14:57:25;;;;;;;;;;;7.10;99.90;;;;;;5108247;27;19916;-90
2023/03/03 15:03:31;;;;;;;;;;;;;;;;;;;;;
2023/03/03 15:13:02;;;;;;;;;;;;;;;;;;;;;
2023/03/03 15:15:33;;;;;;;;;;;7.20;99.90;;;;;;5099919;28;19924;-91
2023/03/03 15:18:17;;;;;;;;;;;;;;;;;;;;;
2023/03/03 15:20:57;;;;;;;;;;;7.00;99.90;;;;;;5072359;28;19924;-90
2023/03/03 15:23:43;;;;;;;;;;;5.30;99.90;;;;;;5085540;28;20019;-91
2023/03/03 15:26:18;;;;;;;;;;;6.90;99.90;;;;;;5065619;28;19994;-90
2023/03/03 15:28:57;;;;;;;;;;;6.90;99.90;;;;;;5073798;28;19932;-90
2023/03/03 15:31:54;;;;;;;;;;;;;;;;;;;;;
2023/03/03 15:34:43;;;;;;;;;;;7.90;99.90;;;;;;5079596;28;20309;-92
2023/03/03 15:37:12;;;;;;;;;;;6.90;99.90;;;;;;5084620;28;19934;-91
2023/03/03 15:39:59;;;;;;;;;;;6.80;99.90;;;;;;5101176;28;20318;-91
2023/03/03 15:42:57;;;;;;;;;;;7.10;99.90;;;;;;5072034;28;19981;-91
2023/03/03 15:45:39;;;;;;;;;;;5.30;99.90;;;;;;5084136;28;19925;-92
2023/03/03 15:48:24;;;;;;;;;;;5.40;99.90;;;;;;5103295;28;19924;-90
2023/03/03 15:51:02;;;;;;;;;;;7.00;99.90;;;;;;5069475;28;19949;-89
2023/03/03 15:53:51;;;;;;;;;;;6.90;99.90;;;;;;5085061;28;19923;-90
2023/03/03 15:56:35;;;;;;;;;;;6.80;99.90;;;;;;5093731;28;19925;-90
2023/03/03 15:59:13;;;;;;;;;;;6.70;99.90;;;;;;5093603;28;19913;-91
2023/03/03 16:02:06;;;;;;;;;;;6.70;99.90;;;;;;5141887;28;19963;-90
2023/03/03 16:04:36;;;;;;;;;;;6.80;99.90;;;;;;5121574;28;19916;-89
2023/03/03 16:07:11;;;;;;;;;;;7.80;99.90;;;;;;5090364;28;19967;-90
2023/03/03 16:09:42;;;;;;;;;;;6.70;99.90;;;;;;5083101;28;19931;-88
2023/03/03 16:12:27;;;;;;;;;;;;;;;;;;;;;
2023/03/03 16:14:59;;;;;;;;;;;7.00;99.90;;;;;;5076637;28;19925;-89
2023/03/03 16:17:35;;;;;;;;;;;7.40;99.90;;;;;;5069374;28;19924;-89
2023/03/03 16:20:27;;;;;;;;;;;6.80;99.90;;;;;;5102909;28;19932;-90
2023/03/03 16:23:21;;;;;;;;;;;6.90;99.90;;;;;;5091300;28;19974;-88
2023/03/03 16:25:57;;;;;;;;;;;7.30;99.90;;;;;;5039327;28;19947;-90
2023/03/03 16:28:26;;;;;;;;;;;6.80;99.90;;;;;;5056817;28;20022;-88
2023/03/03 16:30:57;;;;;;;;;;;6.50;99.90;;;;;;5057108;28;20425;-87
2023/03/03 16:33:31;;;;;;;;;;;7.90;99.90;;;;;;5074111;28;20383;-88
2023/03/03 16:36:17;;;;;;;;;;;6.80;99.90;;;;;;5073656;28;19970;-88
2023/03/03 16:38:48;;;;;;;;;;;6.30;99.90;;;;;;5079791;28;20379;-89
2023/03/03 16:41:22;;;;;;;;;;;6.30;99.90;;;;;;5051202;28;19925;-87
2023/03/03 16:43:50;;;;;;;;;;;6.30;99.90;;;;;;5082604;28;19931;-87
2023/03/03 16:46:35;;;;;;;;;;;6.30;99.90;;;;;;5073068;28;19990;-87
2023/03/03 16:49:13;;;;;;;;;;;6.30;99.90;;;;;;5073453;28;19931;-88
2023/03/03 16:51:51;;;;;;;;;;;6.20;99.90;;;;;;5093039;28;20023;-89
2023/03/03 16:54:29;;;;;;;;;;;6.10;99.90;;;;;;5086960;28;19928;-89
2023/03/03 16:57:05;;;;;;;;;;;6.50;99.90;;;;;;5056410;28;19931;-88
2023/03/03 16:59:52;;;;;;;;;;;6.60;99.90;;;;;;5083003;28;19924;-87
2023/03/03 17:02:21;;;;;;;;;;;8.00;99.90;;;;;;5095713;28;19932;-88
2023/03/03 17:04:57;;;;;;;;;;;4.80;99.90;;;;;;5069548;28;19964;-88